sensor_id;sensor_type;location;lat;lon;timestamp;pressure;altitude;pressure_sealevel;temperature;humidity
52105;BME280;38103;42.776;23.112;2022-09-17T00:01:30;93158.13;;;16.05;100.00
52105;BME280;38103;42.776;23.112;2022-09-17T00:03:58;93151.63;;;16.11;100.00
52105;BME280;38103;42.776;23.112;2022-09-17T00:06:29;93151.06;;;16.14;100.00
52105;BME280;38103;42.776;23.112;2022-09-17T00:08:55;93148.97;;;16.11;100.00
52105;BME280;38103;42.776;23.112;2022-09-17T00:11:26;93142.47;;;16.17;100.00
52105;BME280;38103;42.776;23.112;2022-09-17T00:13:53;93142.56;;;16.12;100.00
52105;BME280;38103;42.776;23.112;2022-09-17T00:16:27;93145.66;;;16.19;100.00
52105;BME280;38103;42.776;23.112;2022-09-17T00:18:53;93145.88;;;16.23;100.00
52105;BME280;38103;42.776;23.112;2022-09-17T00:21:19;93145.78;;;16.28;100.00
52105;BME280;38103;42.776;23.112;2022-09-17T00:23:45;93139.47;;;16.05;100.00
52105;BME280;38103;42.776;23.112;2022-09-17T00:26:10;93151.69;;;16.06;100.00
52105;BME280;38103;42.776;23.112;2022-09-17T00:28:36;93162.78;;;16.13;100.00
52105;BME280;38103;42.776;23.112;2022-09-17T00:31:06;93161.41;;;15.96;100.00
52105;BME280;38103;42.776;23.112;2022-09-17T00:33:32;93159.31;;;15.93;100.00
52105;BME280;38103;42.776;23.112;2022-09-17T00:36:01;93147.78;;;15.79;100.00
52105;BME280;38103;42.776;23.112;2022-09-17T00:38:27;93166.06;;;15.85;100.00
52105;BME280;38103;42.776;23.112;2022-09-17T00:40:52;93172.22;;;15.86;100.00
52105;BME280;38103;42.776;23.112;2022-09-17T00:43:51;93179.97;;;15.82;100.00
52105;BME280;38103;42.776;23.112;2022-09-17T00:46:42;93164.22;;;15.86;100.00
52105;BME280;38103;42.776;23.112;2022-09-17T00:49:15;93160.91;;;15.94;100.00
52105;BME280;38103;42.776;23.112;2022-09-17T00:51:44;93163.50;;;16.00;100.00
52105;BME280;38103;42.776;23.112;2022-09-17T00:54:11;93163.50;;;16.00;100.00
52105;BME280;38103;42.776;23.112;2022-09-17T00:56:39;93157.59;;;16.03;100.00
52105;BME280;38103;42.776;23.112;2022-09-17T00:59:06;93153.28;;;16.07;100.00
52105;BME280;38103;42.776;23.112;2022-09-17T01:01:32;93153.72;;;16.14;100.00
52105;BME280;38103;42.776;23.112;2022-09-17T01:03:58;93153.16;;;16.17;100.00
52105;BME280;38103;42.776;23.112;2022-09-17T01:06:33;93162.59;;;16.10;100.00
52105;BME280;38103;42.776;23.112;2022-09-17T01:12:15;93149.81;;;15.87;100.00
52105;BME280;38103;42.776;23.112;2022-09-17T01:14:59;93138.06;;;15.88;100.00
52105;BME280;38103;42.776;23.112;2022-09-17T01:23:37;93128.22;;;16.08;100.00
52105;BME280;38103;42.776;23.112;2022-09-17T01:31:57;93144.03;;;15.80;100.00
52105;BME280;38103;42.776;23.112;2022-09-17T01:34:40;93126.94;;;15.42;100.00
52105;BME280;38103;42.776;23.112;2022-09-17T01:37:16;93104.69;;;15.08;100.00
52105;BME280;38103;42.776;23.112;2022-09-17T01:39:55;93138.31;;;15.23;100.00
52105;BME280;38103;42.776;23.112;2022-09-17T01:45:27;93159.50;;;15.34;100.00
52105;BME280;38103;42.776;23.112;2022-09-17T01:50:49;93127.44;;;15.44;100.00
52105;BME280;38103;42.776;23.112;2022-09-17T01:53:16;93095.97;;;15.46;100.00
52105;BME280;38103;42.776;23.112;2022-09-17T01:55:44;93092.03;;;15.63;100.00
52105;BME280;38103;42.776;23.112;2022-09-17T01:58:18;93070.09;;;15.71;100.00
52105;BME280;38103;42.776;23.112;2022-09-17T02:00:52;93059.63;;;15.94;100.00
52105;BME280;38103;42.776;23.112;2022-09-17T02:03:40;93033.53;;;15.91;100.00
52105;BME280;38103;42.776;23.112;2022-09-17T02:06:13;93046.56;;;16.12;100.00
52105;BME280;38103;42.776;23.112;2022-09-17T02:08:52;93032.56;;;16.21;100.00
52105;BME280;38103;42.776;23.112;2022-09-17T02:11:19;93052.13;;;16.30;100.00
52105;BME280;38103;42.776;23.112;2022-09-17T02:14:10;93079.31;;;16.32;100.00
52105;BME280;38103;42.776;23.112;2022-09-17T02:16:42;93089.72;;;16.14;100.00
52105;BME280;38103;42.776;23.112;2022-09-17T02:19:27;93010.31;;;15.58;100.00
52105;BME280;38103;42.776;23.112;2022-09-17T02:27:41;93080.88;;;15.80;100.00
52105;BME280;38103;42.776;23.112;2022-09-17T02:30:10;93064.53;;;15.48;100.00
52105;BME280;38103;42.776;23.112;2022-09-17T02:32:36;93063.78;;;15.23;100.00
52105;BME280;38103;42.776;23.112;2022-09-17T02:35:01;93058.44;;;15.23;100.00
52105;BME280;38103;42.776;23.112;2022-09-17T02:37:27;93051.00;;;15.25;100.00
52105;BME280;38103;42.776;23.112;2022-09-17T02:39:53;93035.44;;;15.33;100.00
52105;BME280;38103;42.776;23.112;2022-09-17T02:53:36;93005.06;;;16.06;100.00
52105;BME280;38103;42.776;23.112;2022-09-17T02:56:19;93009.66;;;16.19;100.00
52105;BME280;38103;42.776;23.112;2022-09-17T02:59:17;93001.97;;;16.32;99.05
52105;BME280;38103;42.776;23.112;2022-09-17T03:01:51;93005.16;;;16.48;99.50
52105;BME280;38103;42.776;23.112;2022-09-17T03:04:20;92917.84;;;15.92;98.72
52105;BME280;38103;42.776;23.112;2022-09-17T03:06:50;93006.81;;;16.58;99.90
52105;BME280;38103;42.776;23.112;2022-09-17T03:09:16;93003.47;;;16.67;97.71
52105;BME280;38103;42.776;23.112;2022-09-17T03:11:41;92910.00;;;16.15;95.83
52105;BME280;38103;42.776;23.112;2022-09-17T03:14:07;92976.22;;;16.70;94.31
52105;BME280;38103;42.776;23.112;2022-09-17T03:16:32;92965.72;;;16.88;93.74
52105;BME280;38103;42.776;23.112;2022-09-17T03:18:58;92940.78;;;16.92;91.15
52105;BME280;38103;42.776;23.112;2022-09-17T03:21:23;92951.63;;;16.96;92.75
52105;BME280;38103;42.776;23.112;2022-09-17T03:23:49;92967.25;;;17.03;92.93
52105;BME280;38103;42.776;23.112;2022-09-17T03:26:14;92978.91;;;17.07;94.43
52105;BME280;38103;42.776;23.112;2022-09-17T03:28:40;92973.78;;;17.11;93.12
52105;BME280;38103;42.776;23.112;2022-09-17T03:31:05;92962.09;;;17.06;93.79
52105;BME280;38103;42.776;23.112;2022-09-17T03:33:31;92953.19;;;17.11;92.25
52105;BME280;38103;42.776;23.112;2022-09-17T03:35:57;92949.25;;;17.08;91.44
52105;BME280;38103;42.776;23.112;2022-09-17T03:38:22;92954.59;;;17.08;92.22
52105;BME280;38103;42.776;23.112;2022-09-17T03:41:02;92963.69;;;17.07;91.53
52105;BME280;38103;42.776;23.112;2022-09-17T03:43:28;92842.03;;;16.27;91.73
52105;BME280;38103;42.776;23.112;2022-09-17T03:45:54;92970.31;;;16.96;92.57
52105;BME280;38103;42.776;23.112;2022-09-17T03:48:20;92974.00;;;17.00;92.99
52105;BME280;38103;42.776;23.112;2022-09-17T03:50:45;92977.34;;;16.92;93.97
52105;BME280;38103;42.776;23.112;2022-09-17T03:53:11;92988.34;;;16.90;94.69
52105;BME280;38103;42.776;23.112;2022-09-17T03:55:39;92994.38;;;16.82;95.66
52105;BME280;38103;42.776;23.112;2022-09-17T03:58:05;92997.53;;;16.56;96.99
52105;BME280;38103;42.776;23.112;2022-09-17T04:00:31;93012.75;;;16.55;97.86
52105;BME280;38103;42.776;23.112;2022-09-17T04:02:56;93014.53;;;16.46;99.89
52105;BME280;38103;42.776;23.112;2022-09-17T04:05:22;93014.31;;;16.42;100.00
52105;BME280;38103;42.776;23.112;2022-09-17T04:07:48;93031.88;;;16.29;100.00
52105;BME280;38103;42.776;23.112;2022-09-17T04:10:13;93022.59;;;16.26;100.00
52105;BME280;38103;42.776;23.112;2022-09-17T04:12:38;93041.97;;;16.32;100.00
52105;BME280;38103;42.776;23.112;2022-09-17T04:15:05;93036.97;;;16.11;100.00
52105;BME280;38103;42.776;23.112;2022-09-17T04:17:30;93072.97;;;16.28;100.00
52105;BME280;38103;42.776;23.112;2022-09-17T04:19:56;93072.41;;;16.31;100.00
52105;BME280;38103;42.776;23.112;2022-09-17T04:22:22;93075.16;;;16.26;100.00
52105;BME280;38103;42.776;23.112;2022-09-17T04:24:47;93079.31;;;16.32;100.00
52105;BME280;38103;42.776;23.112;2022-09-17T04:27:13;93079.72;;;16.39;100.00
52105;BME280;38103;42.776;23.112;2022-09-17T04:29:38;93100.63;;;16.32;100.00
52105;BME280;38103;42.776;23.112;2022-09-17T04:32:03;93133.94;;;16.35;100.00
52105;BME280;38103;42.776;23.112;2022-09-17T04:34:29;93142.75;;;16.35;100.00
52105;BME280;38103;42.776;23.112;2022-09-17T04:36:56;93029.00;;;15.72;100.00
52105;BME280;38103;42.776;23.112;2022-09-17T04:39:21;93135.03;;;16.34;100.00
52105;BME280;38103;42.776;23.112;2022-09-17T04:41:46;93128.91;;;16.33;100.00
52105;BME280;38103;42.776;23.112;2022-09-17T04:44:12;93084.53;;;16.04;100.00
52105;BME280;38103;42.776;23.112;2022-09-17T04:46:37;93132.53;;;16.23;100.00
52105;BME280;38103;42.776;23.112;2022-09-17T04:49:03;93144.50;;;16.26;100.00
52105;BME280;38103;42.776;23.112;2022-09-17T04:51:28;93159.31;;;16.32;100.00
52105;BME280;38103;42.776;23.112;2022-09-17T04:53:53;93142.25;;;16.14;100.00
52105;BME280;38103;42.776;23.112;2022-09-17T04:56:19;93167.81;;;16.34;100.00
52105;BME280;38103;42.776;23.112;2022-09-17T04:58:44;93158.25;;;16.33;100.00
52105;BME280;38103;42.776;23.112;2022-09-17T05:01:10;93142.53;;;16.31;100.00
52105;BME280;38103;42.776;23.112;2022-09-17T05:03:38;93115.56;;;16.33;100.00
52105;BME280;38103;42.776;23.112;2022-09-17T05:06:03;93117.06;;;16.39;100.00
52105;BME280;38103;42.776;23.112;2022-09-17T05:08:29;93104.66;;;16.49;100.00
52105;BME280;38103;42.776;23.112;2022-09-17T05:10:54;93105.63;;;16.53;100.00
52105;BME280;38103;42.776;23.112;2022-09-17T05:13:21;93111.78;;;16.53;100.00
52105;BME280;38103;42.776;23.112;2022-09-17T05:15:46;93111.56;;;16.50;100.00
52105;BME280;38103;42.776;23.112;2022-09-17T05:18:12;93108.31;;;16.53;100.00
52105;BME280;38103;42.776;23.112;2022-09-17T05:20:37;93101.91;;;16.54;100.00
52105;BME280;38103;42.776;23.112;2022-09-17T05:23:03;93091.91;;;16.46;100.00
52105;BME280;38103;42.776;23.112;2022-09-17T05:25:29;93101.47;;;16.47;100.00
52105;BME280;38103;42.776;23.112;2022-09-17T05:27:55;93094.34;;;16.42;100.00
52105;BME280;38103;42.776;23.112;2022-09-17T05:30:21;93100.56;;;16.37;100.00
52105;BME280;38103;42.776;23.112;2022-09-17T05:32:47;93106.38;;;16.39;100.00
52105;BME280;38103;42.776;23.112;2022-09-17T05:35:13;93111.72;;;16.39;100.00
52105;BME280;38103;42.776;23.112;2022-09-17T05:37:38;93102.06;;;16.44;100.00
52105;BME280;38103;42.776;23.112;2022-09-17T05:40:05;93101.66;;;16.36;100.00
52105;BME280;38103;42.776;23.112;2022-09-17T05:42:31;93070.06;;;16.10;100.00
52105;BME280;38103;42.776;23.112;2022-09-17T05:44:57;93094.91;;;16.25;100.00
52105;BME280;38103;42.776;23.112;2022-09-17T05:47:22;93089.97;;;16.32;100.00
52105;BME280;38103;42.776;23.112;2022-09-17T05:49:48;93091.56;;;16.33;100.00
52105;BME280;38103;42.776;23.112;2022-09-17T05:52:13;93088.25;;;16.41;100.00
52105;BME280;38103;42.776;23.112;2022-09-17T05:54:38;93110.00;;;16.49;100.00
52105;BME280;38103;42.776;23.112;2022-09-17T05:57:04;93136.06;;;16.52;100.00
52105;BME280;38103;42.776;23.112;2022-09-17T05:59:30;93152.84;;;16.38;100.00
52105;BME280;38103;42.776;23.112;2022-09-17T06:01:56;93143.03;;;16.34;100.00
52105;BME280;38103;42.776;23.112;2022-09-17T06:04:21;93149.66;;;16.36;100.00
52105;BME280;38103;42.776;23.112;2022-09-17T06:06:46;93146.63;;;16.43;100.00
52105;BME280;38103;42.776;23.112;2022-09-17T06:09:12;93168.25;;;16.41;100.00
52105;BME280;38103;42.776;23.112;2022-09-17T06:11:38;93183.91;;;16.48;100.00
52105;BME280;38103;42.776;23.112;2022-09-17T06:14:03;93186.84;;;16.47;100.00
52105;BME280;38103;42.776;23.112;2022-09-17T06:16:29;93174.66;;;16.40;100.00
52105;BME280;38103;42.776;23.112;2022-09-17T06:18:55;93165.84;;;16.26;100.00
52105;BME280;38103;42.776;23.112;2022-09-17T06:21:21;93163.66;;;16.28;100.00
52105;BME280;38103;42.776;23.112;2022-09-17T06:23:48;93160.03;;;16.18;100.00
52105;BME280;38103;42.776;23.112;2022-09-17T06:26:14;93174.06;;;16.10;100.00
52105;BME280;38103;42.776;23.112;2022-09-17T06:28:39;93159.75;;;16.01;100.00
52105;BME280;38103;42.776;23.112;2022-09-17T06:31:06;93145.72;;;15.95;100.00
52105;BME280;38103;42.776;23.112;2022-09-17T06:33:32;93158.38;;;16.03;100.00
52105;BME280;38103;42.776;23.112;2022-09-17T06:36:01;93162.22;;;15.97;100.00
52105;BME280;38103;42.776;23.112;2022-09-17T06:38:28;93157.94;;;15.77;100.00
52105;BME280;38103;42.776;23.112;2022-09-17T06:40:54;93127.97;;;15.66;100.00
52105;BME280;38103;42.776;23.112;2022-09-17T06:43:20;93133.31;;;15.66;100.00
52105;BME280;38103;42.776;23.112;2022-09-17T06:45:53;93125.81;;;15.68;100.00
52105;BME280;38103;42.776;23.112;2022-09-17T06:48:20;93026.63;;;15.13;100.00
52105;BME280;38103;42.776;23.112;2022-09-17T06:50:46;93105.53;;;15.72;100.00
52105;BME280;38103;42.776;23.112;2022-09-17T06:53:12;93067.63;;;15.56;100.00
52105;BME280;38103;42.776;23.112;2022-09-17T06:55:38;93089.59;;;15.86;100.00
52105;BME280;38103;42.776;23.112;2022-09-17T06:58:03;93082.09;;;15.88;100.00
52105;BME280;38103;42.776;23.112;2022-09-17T07:00:28;93074.00;;;15.93;100.00
52105;BME280;38103;42.776;23.112;2022-09-17T07:02:58;93075.19;;;15.87;100.00
52105;BME280;38103;42.776;23.112;2022-09-17T07:05:24;93066.66;;;15.85;100.00
52105;BME280;38103;42.776;23.112;2022-09-17T07:07:51;93070.84;;;15.91;100.00
52105;BME280;38103;42.776;23.112;2022-09-17T07:10:16;93061.72;;;15.97;100.00
52105;BME280;38103;42.776;23.112;2022-09-17T07:12:42;93003.66;;;15.75;100.00
52105;BME280;38103;42.776;23.112;2022-09-17T07:15:08;93052.44;;;16.28;100.00
52105;BME280;38103;42.776;23.112;2022-09-17T07:17:36;93014.66;;;16.07;100.00
52105;BME280;38103;42.776;23.112;2022-09-17T07:20:05;93074.84;;;16.75;100.00
52105;BME280;38103;42.776;23.112;2022-09-17T07:22:31;93060.41;;;16.76;100.00
52105;BME280;38103;42.776;23.112;2022-09-17T07:24:56;93083.38;;;17.05;100.00
52105;BME280;38103;42.776;23.112;2022-09-17T07:27:21;93084.75;;;17.17;100.00
52105;BME280;38103;42.776;23.112;2022-09-17T07:29:47;93061.16;;;17.47;100.00
52105;BME280;38103;42.776;23.112;2022-09-17T07:32:12;93077.28;;;17.70;100.00
52105;BME280;38103;42.776;23.112;2022-09-17T07:34:38;93064.75;;;17.80;100.00
52105;BME280;38103;42.776;23.112;2022-09-17T07:37:03;93070.97;;;17.89;100.00
52105;BME280;38103;42.776;23.112;2022-09-17T07:39:29;93078.69;;;17.91;100.00
52105;BME280;38103;42.776;23.112;2022-09-17T07:41:54;93070.34;;;17.92;100.00
52105;BME280;38103;42.776;23.112;2022-09-17T07:44:19;93080.59;;;18.13;100.00
52105;BME280;38103;42.776;23.112;2022-09-17T07:46:46;93084.53;;;18.16;100.00
52105;BME280;38103;42.776;23.112;2022-09-17T07:49:12;93084.69;;;18.19;100.00
52105;BME280;38103;42.776;23.112;2022-09-17T07:51:37;93052.25;;;18.12;100.00
52105;BME280;38103;42.776;23.112;2022-09-17T07:54:02;93081.44;;;18.46;99.88
52105;BME280;38103;42.776;23.112;2022-09-17T07:56:28;93074.50;;;18.45;97.32
52105;BME280;38103;42.776;23.112;2022-09-17T07:58:54;93064.78;;;18.03;98.67
52105;BME280;38103;42.776;23.112;2022-09-17T08:01:19;93061.25;;;17.93;100.00
52105;BME280;38103;42.776;23.112;2022-09-17T08:03:49;93072.13;;;17.97;100.00
52105;BME280;38103;42.776;23.112;2022-09-17T08:06:20;93065.84;;;18.02;100.00
52105;BME280;38103;42.776;23.112;2022-09-17T08:08:46;93061.63;;;18.01;100.00
52105;BME280;38103;42.776;23.112;2022-09-17T08:11:17;93064.66;;;17.85;98.21
52105;BME280;38103;42.776;23.112;2022-09-17T08:13:46;93066.72;;;18.11;100.00
52105;BME280;38103;42.776;23.112;2022-09-17T08:16:12;93052.00;;;18.46;100.00
52105;BME280;38103;42.776;23.112;2022-09-17T08:18:38;93038.09;;;18.67;96.93
52105;BME280;38103;42.776;23.112;2022-09-17T08:21:05;93037.81;;;18.77;99.80
52105;BME280;38103;42.776;23.112;2022-09-17T08:23:34;93034.09;;;18.96;100.00
52105;BME280;38103;42.776;23.112;2022-09-17T08:26:00;93038.63;;;18.86;99.74
52105;BME280;38103;42.776;23.112;2022-09-17T08:28:28;93045.22;;;18.80;98.70
52105;BME280;38103;42.776;23.112;2022-09-17T08:31:02;93040.06;;;18.93;99.86
52105;BME280;38103;42.776;23.112;2022-09-17T08:33:32;93051.44;;;19.07;98.57
52105;BME280;38103;42.776;23.112;2022-09-17T08:35:57;92991.69;;;18.39;98.65
52105;BME280;38103;42.776;23.112;2022-09-17T08:38:24;93047.94;;;18.89;99.93
52105;BME280;38103;42.776;23.112;2022-09-17T08:43:34;93017.38;;;18.49;98.26
52105;BME280;38103;42.776;23.112;2022-09-17T08:46:02;93027.28;;;18.81;100.00
52105;BME280;38103;42.776;23.112;2022-09-17T08:48:33;93040.06;;;18.93;96.71
52105;BME280;38103;42.776;23.112;2022-09-17T08:51:14;93045.84;;;18.77;97.93
52105;BME280;38103;42.776;23.112;2022-09-17T08:53:58;93053.59;;;18.87;97.90
52105;BME280;38103;42.776;23.112;2022-09-17T08:56:26;93042.28;;;18.91;96.77
52105;BME280;38103;42.776;23.112;2022-09-17T08:59:23;93049.56;;;18.99;97.97
52105;BME280;38103;42.776;23.112;2022-09-17T09:01:58;93047.03;;;18.94;97.49
52105;BME280;38103;42.776;23.112;2022-09-17T09:07:21;93063.56;;;18.55;97.46
52105;BME280;38103;42.776;23.112;2022-09-17T09:09:52;93066.72;;;18.57;97.68
52105;BME280;38103;42.776;23.112;2022-09-17T09:12:25;93065.72;;;18.53;98.51
52105;BME280;38103;42.776;23.112;2022-09-17T09:15:02;93072.66;;;18.54;98.80
52105;BME280;38103;42.776;23.112;2022-09-17T09:17:37;93072.06;;;18.57;99.30
52105;BME280;38103;42.776;23.112;2022-09-17T09:20:14;93075.09;;;18.64;98.98
52105;BME280;38103;42.776;23.112;2022-09-17T09:22:47;93079.09;;;18.76;100.00
52105;BME280;38103;42.776;23.112;2022-09-17T09:25:23;93088.56;;;18.82;100.00
52105;BME280;38103;42.776;23.112;2022-09-17T09:28:13;93087.59;;;18.78;99.76
52105;BME280;38103;42.776;23.112;2022-09-17T09:30:52;93096.09;;;18.80;99.26
52105;BME280;38103;42.776;23.112;2022-09-17T09:33:26;93110.94;;;18.86;100.00
52105;BME280;38103;42.776;23.112;2022-09-17T09:35:54;93113.38;;;18.74;100.00
52105;BME280;38103;42.776;23.112;2022-09-17T09:38:35;93143.06;;;18.86;100.00
52105;BME280;38103;42.776;23.112;2022-09-17T09:41:12;93130.78;;;18.85;100.00
52105;BME280;38103;42.776;23.112;2022-09-17T09:43:44;93137.72;;;18.86;100.00
52105;BME280;38103;42.776;23.112;2022-09-17T09:51:57;93098.72;;;18.39;100.00
52105;BME280;38103;42.776;23.112;2022-09-17T09:55:30;93092.69;;;18.11;100.00
52105;BME280;38103;42.776;23.112;2022-09-17T09:57:42;93072.84;;;18.12;100.00
52105;BME280;38103;42.776;23.112;2022-09-17T10:03:00;93038.25;;;17.69;100.00
52105;BME280;38103;42.776;23.112;2022-09-17T10:05:28;92990.34;;;17.36;100.00
52105;BME280;38103;42.776;23.112;2022-09-17T10:07:54;92965.06;;;17.05;100.00
52105;BME280;38103;42.776;23.112;2022-09-17T10:22:48;92982.31;;;16.28;100.00
52105;BME280;38103;42.776;23.112;2022-09-17T10:25:31;92991.81;;;16.48;100.00
52105;BME280;38103;42.776;23.112;2022-09-17T10:28:02;93001.50;;;16.58;100.00
52105;BME280;38103;42.776;23.112;2022-09-17T10:30:30;93024.41;;;16.73;100.00
52105;BME280;38103;42.776;23.112;2022-09-17T10:35:39;93045.78;;;17.02;100.00
52105;BME280;38103;42.776;23.112;2022-09-17T10:38:24;93050.53;;;17.19;100.00
52105;BME280;38103;42.776;23.112;2022-09-17T10:40:50;93040.31;;;17.35;100.00
52105;BME280;38103;42.776;23.112;2022-09-17T10:43:21;93052.06;;;17.48;100.00
52105;BME280;38103;42.776;23.112;2022-09-17T10:45:55;93048.69;;;17.57;100.00
52105;BME280;38103;42.776;23.112;2022-09-17T10:48:21;93049.88;;;17.50;100.00
52105;BME280;38103;42.776;23.112;2022-09-17T10:50:49;93057.19;;;17.59;100.00
52105;BME280;38103;42.776;23.112;2022-09-17T10:53:16;93052.94;;;17.81;100.00
52105;BME280;38103;42.776;23.112;2022-09-17T10:56:06;93051.53;;;17.97;100.00
52105;BME280;38103;42.776;23.112;2022-09-17T11:01:23;93007.03;;;18.02;100.00
52105;BME280;38103;42.776;23.112;2022-09-17T11:20:28;93055.59;;;19.14;100.00
52105;BME280;38103;42.776;23.112;2022-09-17T11:29:02;93053.66;;;19.05;100.00
52105;BME280;38103;42.776;23.112;2022-09-17T11:34:43;93045.16;;;19.03;100.00
52105;BME280;38103;42.776;23.112;2022-09-17T11:37:19;93040.75;;;19.07;100.00
52105;BME280;38103;42.776;23.112;2022-09-17T11:39:50;93032.38;;;19.00;100.00
52105;BME280;38103;42.776;23.112;2022-09-17T11:42:21;93007.47;;;18.99;100.00
52105;BME280;38103;42.776;23.112;2022-09-17T11:45:04;93019.75;;;18.92;100.00
52105;BME280;38103;42.776;23.112;2022-09-17T11:47:36;92995.03;;;18.95;100.00
52105;BME280;38103;42.776;23.112;2022-09-17T11:55:47;92978.44;;;18.34;100.00
52105;BME280;38103;42.776;23.112;2022-09-17T12:00:51;92986.34;;;18.39;100.00
52105;BME280;38103;42.776;23.112;2022-09-17T12:03:38;92991.59;;;18.22;98.98
52105;BME280;38103;42.776;23.112;2022-09-17T12:06:10;92910.13;;;17.50;99.31
52105;BME280;38103;42.776;23.112;2022-09-17T12:09:02;92984.53;;;18.03;100.00
52105;BME280;38103;42.776;23.112;2022-09-17T12:12:07;92983.13;;;18.05;100.00
52105;BME280;38103;42.776;23.112;2022-09-17T12:17:02;92979.19;;;18.03;100.00
52105;BME280;38103;42.776;23.112;2022-09-17T12:22:16;92962.34;;;18.02;99.21
52105;BME280;38103;42.776;23.112;2022-09-17T12:24:45;92969.63;;;18.11;99.65
52105;BME280;38103;42.776;23.112;2022-09-17T12:30:10;92963.97;;;18.12;98.44
52105;BME280;38103;42.776;23.112;2022-09-17T12:41:53;92959.69;;;17.79;98.29
52105;BME280;38103;42.776;23.112;2022-09-17T12:54:51;92937.13;;;17.39;98.98
52105;BME280;38103;42.776;23.112;2022-09-17T13:00:09;92928.44;;;17.34;98.61
52105;BME280;38103;42.776;23.112;2022-09-17T13:14:10;92899.16;;;17.28;100.00
52105;BME280;38103;42.776;23.112;2022-09-17T13:16:52;92888.13;;;17.21;100.00
52105;BME280;38103;42.776;23.112;2022-09-17T13:19:38;92884.94;;;17.19;100.00
52105;BME280;38103;42.776;23.112;2022-09-17T13:22:15;92877.88;;;17.00;100.00
52105;BME280;38103;42.776;23.112;2022-09-17T13:24:41;92883.25;;;17.09;100.00
52105;BME280;38103;42.776;23.112;2022-09-17T13:27:23;92885.56;;;17.16;100.00
52105;BME280;38103;42.776;23.112;2022-09-17T13:37:32;92870.50;;;17.20;99.69
52105;BME280;38103;42.776;23.112;2022-09-17T13:40:00;92809.38;;;16.95;100.00
52105;BME280;38103;42.776;23.112;2022-09-17T13:42:30;92847.25;;;17.44;98.94
52105;BME280;38103;42.776;23.112;2022-09-17T13:45:09;92846.19;;;17.53;97.45
52105;BME280;38103;42.776;23.112;2022-09-17T13:47:38;92827.16;;;17.46;97.01
52105;BME280;38103;42.776;23.112;2022-09-17T13:50:27;92811.28;;;17.50;98.11
52105;BME280;38103;42.776;23.112;2022-09-17T13:52:56;92786.25;;;17.37;96.87
52105;BME280;38103;42.776;23.112;2022-09-17T13:55:36;92785.25;;;17.33;96.41
52105;BME280;38103;42.776;23.112;2022-09-17T14:13:48;92813.34;;;17.53;100.00
52105;BME280;38103;42.776;23.112;2022-09-17T14:18:58;92811.94;;;17.56;100.00
52105;BME280;38103;42.776;23.112;2022-09-17T14:21:32;92822.03;;;17.59;100.00
52105;BME280;38103;42.776;23.112;2022-09-17T14:24:03;92825.97;;;17.61;100.00
52105;BME280;38103;42.776;23.112;2022-09-17T14:26:55;92813.53;;;17.57;100.00
52105;BME280;38103;42.776;23.112;2022-09-17T14:31:54;92806.59;;;17.56;100.00
52105;BME280;38103;42.776;23.112;2022-09-17T14:34:22;92775.59;;;17.46;100.00
52105;BME280;38103;42.776;23.112;2022-09-17T14:36:49;92791.53;;;17.60;100.00
52105;BME280;38103;42.776;23.112;2022-09-17T14:39:22;92792.16;;;17.57;100.00
52105;BME280;38103;42.776;23.112;2022-09-17T14:41:51;92794.69;;;17.62;100.00
52105;BME280;38103;42.776;23.112;2022-09-17T14:44:19;92792.75;;;17.53;100.00
52105;BME280;38103;42.776;23.112;2022-09-17T14:47:06;92801.72;;;17.03;100.00
52105;BME280;38103;42.776;23.112;2022-09-17T14:49:36;92801.59;;;16.85;100.00
52105;BME280;38103;42.776;23.112;2022-09-17T14:52:22;92776.59;;;17.04;100.00
52105;BME280;38103;42.776;23.112;2022-09-17T14:55:49;92767.94;;;16.98;100.00
52105;BME280;38103;42.776;23.112;2022-09-17T14:57:58;92745.47;;;16.76;100.00
52105;BME280;38103;42.776;23.112;2022-09-17T15:00:49;92760.88;;;16.79;100.00
52105;BME280;38103;42.776;23.112;2022-09-17T15:03:20;92755.56;;;16.79;100.00
52105;BME280;38103;42.776;23.112;2022-09-17T15:05:47;92760.22;;;16.96;100.00
52105;BME280;38103;42.776;23.112;2022-09-17T15:08:20;92749.84;;;16.95;100.00
52105;BME280;38103;42.776;23.112;2022-09-17T15:10:47;92754.69;;;16.93;100.00
52105;BME280;38103;42.776;23.112;2022-09-17T15:13:17;92754.94;;;17.05;100.00
52105;BME280;38103;42.776;23.112;2022-09-17T15:16:01;92677.97;;;16.52;99.99
52105;BME280;38103;42.776;23.112;2022-09-17T15:18:35;92739.88;;;16.86;100.00
52105;BME280;38103;42.776;23.112;2022-09-17T15:21:04;92727.28;;;16.78;100.00
52105;BME280;38103;42.776;23.112;2022-09-17T15:23:34;92701.59;;;16.59;100.00
52105;BME280;38103;42.776;23.112;2022-09-17T15:26:01;92730.06;;;16.73;100.00
52105;BME280;38103;42.776;23.112;2022-09-17T15:28:35;92722.56;;;16.75;100.00
52105;BME280;38103;42.776;23.112;2022-09-17T15:31:05;92695.88;;;16.75;100.00
52105;BME280;38103;42.776;23.112;2022-09-17T15:33:32;92715.69;;;16.83;100.00
52105;BME280;38103;42.776;23.112;2022-09-17T15:38:44;92719.75;;;16.80;100.00
52105;BME280;38103;42.776;23.112;2022-09-17T15:43:50;92721.94;;;16.78;100.00
52105;BME280;38103;42.776;23.112;2022-09-17T15:46:27;92732.59;;;16.78;100.00
52105;BME280;38103;42.776;23.112;2022-09-17T15:48:54;92744.41;;;16.77;99.26
52105;BME280;38103;42.776;23.112;2022-09-17T15:51:30;92747.06;;;16.77;100.00
52105;BME280;38103;42.776;23.112;2022-09-17T15:53:58;92712.72;;;16.61;98.91
52105;BME280;38103;42.776;23.112;2022-09-17T15:56:28;92737.81;;;16.83;98.91
52105;BME280;38103;42.776;23.112;2022-09-17T15:59:03;92729.81;;;16.83;98.96